Terminal Aerodrome Forecast
Issued by NWS

Home | Current Version | Previous Version | Text Only | Print | Product List | Glossary Off
Versions: 1 2 3 4 5 6 7 8 9 10 11 12 13 14 15 16 17 18 19 20 21 22 23 24 25 26 27 28 29 30 31 32 33 34 35 36 37 38 39 40

000
FTUS43 KGRB 241700
TAFRHI
TAF
KRHI 241723Z 2418/2518 35006KT P6SM SCT010 OVC025
      TEMPO 2418/2420 3SM -SN BKN008
     FM250000 29005KT P6SM -SN SCT012 OVC022
     FM250600 27008KT P6SM OVC015
     FM251400 23007KT P6SM OVC022=

USA.gov is the U.S. government's official web portal to all federal, state and local government web resources and services.